createdAt,value
2023-04-02T00:44:10.308Z,90.50
2023-04-02T00:49:19.760Z,89.87
2023-04-02T00:54:31.920Z,89.34
2023-04-02T00:59:44.432Z,89.28
2023-04-02T01:04:57.942Z,88.70
2023-04-02T01:10:23.721Z,88.02
2023-04-02T01:15:29.202Z,88.38
2023-04-02T01:21:07.574Z,88.03
2023-04-02T01:26:15.331Z,88.42
2023-04-02T01:31:12.619Z,88.58
2023-04-02T01:36:35.756Z,88.40
2023-04-02T01:41:50.594Z,89.11
2023-04-02T01:46:56.434Z,88.82
2023-04-02T01:51:56.858Z,88.61
2023-04-02T01:56:55.022Z,88.47
2023-04-02T02:02:05.239Z,88.72
2023-04-02T02:07:04.321Z,87.97
2023-04-02T02:12:00.420Z,87.97
2023-04-02T02:16:58.132Z,87.48
2023-04-02T02:21:55.907Z,87.36
2023-04-02T02:27:06.201Z,86.82
2023-04-02T02:32:05.589Z,86.47
2023-04-02T02:37:08.098Z,86.09
2023-04-02T02:42:09.944Z,86.59
2023-04-02T02:47:13.577Z,86.80
2023-04-02T02:52:20.338Z,87.48
2023-04-02T02:57:36.474Z,87.87
2023-04-02T03:02:43.749Z,88.10
2023-04-02T03:07:41.964Z,87.69
2023-04-02T03:12:51.711Z,87.71
2023-04-02T03:18:02.249Z,87.20
2023-04-02T03:23:07.483Z,87.37
2023-04-02T03:28:06.371Z,87.23
2023-04-02T03:33:05.411Z,87.60
2023-04-02T03:38:06.248Z,87.66
2023-04-02T03:43:07.265Z,87.30
2023-04-02T03:48:09.564Z,87.82
2023-04-02T03:53:04.275Z,86.88
2023-04-02T03:58:08.212Z,86.74
2023-04-02T04:03:16.265Z,86.58
2023-04-02T04:08:17.309Z,86.71
2023-04-02T04:13:16.627Z,86.83
2023-04-02T04:18:29.606Z,86.20
2023-04-02T04:23:30.537Z,86.67
2023-04-02T04:28:33.171Z,87.38
2023-04-02T04:33:43.694Z,88.88
2023-04-02T04:39:17.123Z,90.86
2023-04-02T04:44:24.355Z,93.13
2023-04-02T04:49:31.722Z,94.50
2023-04-02T04:54:28.349Z,95.67
2023-04-02T04:59:31.020Z,96.64
2023-04-02T05:04:37.843Z,97.38
2023-04-02T05:09:44.891Z,98.30
2023-04-02T05:14:50.942Z,98.63
2023-04-02T05:19:59.022Z,99.07
2023-04-02T05:25:26.218Z,99.30
2023-04-02T05:30:46.839Z,99.59
2023-04-02T05:36:28.135Z,99.20
2023-04-02T05:41:40.311Z,98.92
2023-04-02T05:47:13.820Z,98.98
2023-04-02T05:52:29.694Z,99.57
2023-04-02T05:57:44.575Z,98.73
2023-04-02T06:22:18.985Z,97.37
2023-04-02T06:27:35.814Z,96.91
2023-04-02T06:33:10.117Z,97.06
2023-04-02T06:38:20.629Z,96.57
2023-04-02T06:43:33.783Z,97.10
2023-04-02T06:48:51.576Z,97.51
2023-04-02T06:54:05.663Z,96.33
2023-04-02T06:59:09.793Z,95.56
2023-04-02T07:04:20.707Z,94.74
2023-04-02T07:09:43.722Z,94.14
2023-04-02T07:14:42.239Z,92.85
2023-04-02T07:20:02.866Z,91.32
2023-04-02T07:25:45.507Z,90.90
2023-04-02T07:36:54.743Z,92.00
2023-04-02T07:42:16.218Z,90.80
2023-04-02T07:47:18.965Z,92.53
2023-04-02T08:04:02.254Z,81.24
2023-04-02T08:09:32.067Z,82.02
2023-04-02T08:14:50.695Z,80.50
2023-04-02T08:20:29.681Z,79.04
2023-04-02T08:25:31.786Z,77.91
2023-04-02T08:30:45.082Z,78.51
2023-04-02T08:35:45.090Z,76.82
2023-04-02T08:46:14.842Z,74.22
2023-04-02T08:57:33.232Z,74.54
2023-04-02T09:02:39.829Z,75.66
2023-04-02T09:07:34.856Z,74.16
2023-04-02T09:12:33.425Z,72.38
2023-04-02T09:17:50.546Z,69.48
2023-04-02T09:22:55.514Z,74.31
2023-04-02T09:28:27.833Z,68.81
2023-04-02T09:33:43.285Z,69.16
2023-04-02T09:39:19.882Z,68.14
2023-04-02T09:44:30.680Z,70.59
2023-04-02T09:50:05.311Z,67.89
2023-04-02T09:55:25.826Z,68.68
2023-04-02T10:06:18.434Z,66.11
2023-04-02T10:11:25.399Z,67.32
2023-04-02T10:16:27.837Z,66.94
2023-04-02T10:21:30.724Z,65.72
2023-04-02T10:26:46.997Z,67.26
2023-04-02T10:32:00.521Z,66.38
2023-04-02T10:37:24.801Z,66.45
2023-04-02T10:42:27.977Z,68.41
2023-04-02T10:47:41.299Z,67.15
2023-04-02T10:52:43.019Z,67.62
2023-04-02T10:57:42.381Z,68.37
2023-04-02T11:02:45.520Z,65.94
2023-04-02T11:07:54.179Z,65.69
2023-04-02T11:12:58.008Z,61.99
2023-04-02T11:17:55.172Z,60.40
2023-04-02T11:23:16.269Z,57.56
2023-04-02T11:28:34.160Z,56.41
2023-04-02T11:34:21.326Z,53.70
2023-04-02T11:39:58.462Z,45.52
2023-04-02T11:45:30.311Z,43.68
2023-04-02T11:51:18.856Z,43.94
2023-04-02T11:56:49.401Z,40.51
2023-04-02T12:02:38.183Z,40.42
2023-04-02T12:08:13.695Z,43.08
2023-04-02T12:14:42.430Z,43.91
2023-04-02T12:19:56.280Z,49.39
2023-04-02T12:26:00.015Z,42.61
2023-04-02T12:31:30.925Z,43.46
2023-04-02T12:36:42.167Z,46.58
2023-04-02T12:42:03.149Z,49.17
2023-04-02T12:47:17.726Z,49.04
2023-04-02T12:52:34.903Z,49.79
2023-04-02T12:57:46.355Z,44.69
2023-04-02T13:27:19.605Z,51.75
2023-04-02T13:32:56.831Z,51.49
2023-04-02T13:51:06.339Z,38.27
2023-04-02T13:57:08.846Z,33.52
2023-04-02T14:02:51.562Z,33.92
2023-04-02T14:08:18.778Z,30.70
2023-04-02T14:13:54.095Z,30.49
2023-04-02T14:19:14.052Z,32.75
2023-04-02T14:24:51.772Z,35.37
2023-04-02T14:30:11.683Z,37.47
2023-04-02T14:35:46.606Z,40.48
2023-04-02T14:40:52.637Z,42.41
2023-04-02T14:46:18.410Z,43.18
2023-04-02T14:51:36.522Z,42.89
2023-04-02T14:56:40.885Z,44.77
2023-04-02T15:01:39.620Z,43.45
2023-04-02T15:06:41.593Z,43.53
2023-04-02T15:11:39.381Z,43.34
2023-04-02T15:16:39.081Z,43.98
2023-04-02T15:22:30.957Z,44.68
2023-04-02T15:27:51.450Z,46.36
2023-04-02T15:32:50.275Z,46.44
2023-04-02T15:38:50.776Z,47.42
2023-04-02T15:43:58.514Z,48.83
2023-04-02T15:49:22.810Z,48.42
2023-04-02T15:54:34.488Z,50.61
2023-04-02T16:00:07.577Z,50.13
2023-04-02T16:05:13.898Z,50.36
2023-04-02T16:10:41.133Z,50.90
2023-04-02T16:15:42.703Z,52.27
2023-04-02T16:20:42.008Z,52.64
2023-04-02T16:25:57.987Z,53.76
2023-04-02T16:31:07.666Z,54.70
2023-04-02T16:54:29.435Z,58.56
2023-04-02T16:59:35.754Z,59.38
2023-04-02T17:04:58.756Z,59.60
2023-04-02T17:10:04.225Z,60.19
2023-04-02T17:15:24.870Z,60.34
2023-04-02T17:20:36.988Z,60.17
2023-04-02T17:25:48.549Z,61.05
2023-04-02T17:30:50.374Z,61.31
2023-04-02T17:36:22.197Z,61.12
2023-04-02T17:47:11.869Z,61.15
2023-04-02T17:52:19.958Z,60.26
2023-04-02T17:57:53.320Z,58.68
2023-04-02T18:03:28.003Z,59.92
2023-04-02T18:08:40.214Z,60.81
2023-04-02T18:13:45.399Z,62.24
2023-04-02T18:19:06.220Z,63.47
2023-04-02T18:24:24.096Z,65.29
2023-04-02T18:29:35.186Z,68.20
2023-04-02T18:34:45.435Z,69.58
2023-04-02T18:39:57.146Z,69.94
2023-04-02T18:45:18.078Z,71.07
2023-04-02T18:50:54.338Z,72.43
2023-04-02T18:56:12.056Z,73.98
2023-04-02T19:01:09.272Z,74.15
2023-04-02T19:06:23.622Z,75.26
2023-04-02T19:11:28.917Z,75.27
2023-04-02T19:17:14.368Z,75.13
2023-04-02T19:22:33.761Z,74.21
2023-04-02T19:27:39.652Z,74.66
2023-04-02T19:32:47.188Z,74.31
2023-04-02T19:38:06.822Z,73.76
2023-04-02T19:43:11.666Z,73.15
2023-04-02T19:48:28.707Z,74.99
2023-04-02T19:53:33.188Z,75.27
2023-04-02T19:58:40.216Z,76.48
2023-04-02T20:03:35.405Z,76.91
2023-04-02T20:08:43.798Z,76.61
2023-04-02T20:13:41.596Z,77.36
2023-04-02T20:18:38.536Z,77.03
2023-04-02T20:23:36.430Z,77.25
2023-04-02T20:28:38.031Z,77.93
2023-04-02T20:33:40.195Z,78.95
2023-04-02T20:38:36.565Z,80.47
2023-04-02T20:43:31.237Z,79.00
2023-04-02T20:48:39.729Z,75.42
2023-04-02T20:53:38.004Z,73.06
2023-04-02T20:58:36.901Z,71.08
2023-04-02T21:03:32.325Z,70.12
2023-04-02T21:08:26.723Z,70.94
2023-04-02T21:13:25.826Z,69.61
2023-04-02T21:18:19.321Z,69.77
2023-04-02T21:23:13.618Z,69.67
2023-04-02T21:28:07.639Z,68.58
2023-04-02T21:33:03.880Z,68.63
2023-04-02T21:37:57.532Z,68.80
2023-04-02T21:42:52.512Z,68.43
2023-04-02T21:47:47.911Z,67.89
2023-04-02T21:52:43.006Z,68.88
2023-04-02T21:57:37.170Z,69.22
2023-04-02T22:02:31.094Z,69.06
2023-04-02T22:07:24.838Z,69.15
2023-04-02T22:12:22.438Z,69.38
2023-04-02T22:17:24.453Z,68.80
2023-04-02T22:22:18.039Z,69.53
2023-04-02T22:27:12.730Z,69.39
2023-04-02T22:32:11.894Z,69.38
2023-04-02T22:37:37.691Z,69.42
2023-04-02T22:42:31.370Z,70.22
2023-04-02T22:47:26.405Z,69.22
2023-04-02T22:52:19.831Z,69.47
2023-04-02T22:57:16.138Z,69.54
2023-04-02T23:02:10.766Z,70.10
2023-04-02T23:07:08.466Z,70.05
2023-04-02T23:12:03.233Z,69.17
2023-04-02T23:16:56.922Z,68.33
2023-04-02T23:21:50.610Z,68.50
2023-04-02T23:26:45.468Z,69.44
2023-04-02T23:31:39.375Z,69.40
2023-04-02T23:36:35.713Z,70.16
2023-04-02T23:41:31.030Z,70.35
2023-04-02T23:46:27.045Z,70.31
2023-04-02T23:51:22.942Z,69.98
2023-04-02T23:56:16.436Z,69.64
